WetterOnline ( https://www.wetteronline.de )

Wetter aktuell Roth

Aktuelles Wetter: Roth (386m)

6-stündlich | Neueste Meldungen
Ortszeit Temperatur Wetter
Sa, 24.10. 14:00 15.0° C leicht bewölkt
Sa, 24.10. 8:00 11.7° C bedeckt
Sa, 24.10. 2:00 12.8° C bewölkt
Fr, 23.10. 20:00 13.7° C Regen
Fr, 23.10. 14:00 16.2° C bedeckt
Fr, 23.10. 8:00 13.0° C bedeckt
Fr, 23.10. 2:00 12.6° C leichter Regen
Do, 22.10. 20:00 16.4° C bewölkt
Ortszeit Temperatur Wetter
Sa, 24.10. 17:00 14.7° C fast wolkenlos
Sa, 24.10. 16:50 14.7° C fast wolkenlos
Sa, 24.10. 16:40 15.3° C wolkenlos
Sa, 24.10. 16:30 15.7° C fast wolkenlos
Sa, 24.10. 16:20 15.7° C fast wolkenlos
Sa, 24.10. 16:10 14.9° C leicht bewölkt
Sa, 24.10. 16:00 14.9° C leicht bewölkt
Sa, 24.10. 15:30 16.0° C fast wolkenlos
Sa, 24.10. 15:00 15.3° C leicht bewölkt
Sa, 24.10. 14:30 16.0° C leicht bewölkt
Sa, 24.10. 14:00 15.0° C leicht bewölkt
Ortszeit Relative Feuchte Sichtweite
Sa, 24.10. 14:00 67% >70 km
Sa, 24.10. 8:00 99% 5.0 km
Sa, 24.10. 2:00 97% 12 km
Fr, 23.10. 20:00 96% 26 km
Fr, 23.10. 14:00 78% 55 km
Fr, 23.10. 8:00 95% 30 km
Fr, 23.10. 2:00 89% 30 km
Do, 22.10. 20:00 65% 40 km
Ortszeit Relative Feuchte Sichtweite
Sa, 24.10. 17:00 66% 45 km
Sa, 24.10. 16:50 66% -
Sa, 24.10. 16:40 64% -
Sa, 24.10. 16:30 64% 50 km
Sa, 24.10. 16:20 64% -
Sa, 24.10. 16:10 68% -
Sa, 24.10. 16:00 67% 50 km
Sa, 24.10. 15:30 61% 50 km
Sa, 24.10. 15:00 64% 60 km
Sa, 24.10. 14:30 62% 65 km
Sa, 24.10. 14:00 67% >70 km
Ortszeit Niederschlagsmenge Niederschlagsart
Sa, 24.10. 14:00 0.1 l/m2 in 6 Std. Regen
Sa, 24.10. 8:00 4 l/m2 in 12 Std. Regen
Sa, 24.10. 2:00 3 l/m2 in 6 Std. Regen
Fr, 23.10. 20:00 2 l/m2 in 12 Std. Regen
Fr, 23.10. 14:00 0.1 l/m2 in 6 Std. Regen
Fr, 23.10. 8:00 1 l/m2 in 12 Std. Regen
Fr, 23.10. 2:00 0.1 l/m2 in 6 Std. Regen
Do, 22.10. 20:00 0.0 l/m2 in 12 Std. -
Ortszeit Niederschlagsmenge Niederschlagsart
Sa, 24.10. 17:00 0.0 l/m2 in 1 Std. -
Sa, 24.10. 16:50 keine Meldung -
Sa, 24.10. 16:40 keine Meldung -
Sa, 24.10. 16:30 0.0 l/m2 in 1 Std. -
Sa, 24.10. 16:20 keine Meldung -
Sa, 24.10. 16:10 keine Meldung -
Sa, 24.10. 16:00 0.0 l/m2 in 1 Std. -
Sa, 24.10. 15:30 0.0 l/m2 in 1 Std. -
Sa, 24.10. 15:00 0.0 l/m2 in 1 Std. -
Sa, 24.10. 14:30 0.0 l/m2 in 1 Std. -
Sa, 24.10. 14:00 0.0 l/m2 in 1 Std. Regen
Ortszeit Stärke Spitze Richtung
km/h Bft. km/h Grad Sektor
Sa, 24.10. 14:00 11 2 28 250° W
Sa, 24.10. 8:00 4 1 14 270° W
Sa, 24.10. 2:00 9 2 17 220° SW
Fr, 23.10. 20:00 7 2 22 200° S
Fr, 23.10. 14:00 7 2 22 230° SW
Fr, 23.10. 8:00 6 1 19 200° S
Fr, 23.10. 2:00 4 1 18 190° S
Do, 22.10. 20:00 9 2 19 190° S
Ortszeit Stärke Spitze Richtung
km/h Bft. km/h Grad Sektor
Sa, 24.10. 17:00 9 2 19 240° SW
Sa, 24.10. 16:50 9 2 - 240° SW
Sa, 24.10. 16:40 11 2 - 230° SW
Sa, 24.10. 16:30 11 2 18 250° W
Sa, 24.10. 16:20 11 2 - 250° W
Sa, 24.10. 16:10 9 2 - 240° SW
Sa, 24.10. 16:00 11 2 29 230° SW
Sa, 24.10. 15:30 17 3 28 230° SW
Sa, 24.10. 15:00 18 3 32 250° W
Sa, 24.10. 14:30 19 3 31 230° SW
Sa, 24.10. 14:00 11 2 24 250° W
Ortszeit Untergrenze Bedeckung Gattung
total tief tief mittel hoch
Sa, 24.10. 14:00 810 m 3/8 5/8 - - -
Sa, 24.10. 8:00 1470 m 8/8 8/8 - - -
Sa, 24.10. 2:00 1440 m 8/8 7/8 - - -
Fr, 23.10. 20:00 1440 m 8/8 8/8 - - -
Fr, 23.10. 14:00 1380 m 8/8 8/8 - - -
Fr, 23.10. 8:00 1260 m 8/8 8/8 - - -
Fr, 23.10. 2:00 2400 m 8/8 4/8 - - -
Do, 22.10. 20:00 2700 m 8/8 7/8 - - -
Ortszeit Bedeckungsgrad in Achtel und Wolkenuntergrenze
Sa, 24.10. 17:00 1(1110m)
Sa, 24.10. 16:50 1(1110m)
Sa, 24.10. 16:40 keine Wolken
Sa, 24.10. 16:30 1(960m)
Sa, 24.10. 16:20 1(960m)
Sa, 24.10. 16:10 3(990m)
Sa, 24.10. 16:00 2(960m) 3(1470m)
Sa, 24.10. 15:30 1(1110m)
Sa, 24.10. 15:00 3(870m) 4(1050m)
Sa, 24.10. 14:30 2(840m) 3(1080m) 4(1500m)
Sa, 24.10. 14:00 2(810m) 3(1350m) 5(1320m)
Ortszeit Luftdruck NN (hPa) Tendenz (hPa in 3 Std.)
Sa, 24.10. 14:00 1018 - 0,3
Sa, 24.10. 8:00 1017 + 1,5
Sa, 24.10. 2:00 1015 + 0,3
Fr, 23.10. 20:00 1013 + 0,2
Fr, 23.10. 14:00 1014 - 1,2
Fr, 23.10. 8:00 1015 - 0,6
Fr, 23.10. 2:00 1017 - 0,7
Do, 22.10. 20:00 1017 + 0,5
Ortszeit Luftdruck NN (hPa) Tendenz (hPa in 3 Std.)
Sa, 24.10. 17:00 1017 - 1,0
Sa, 24.10. 16:50 1017 keine Meldung
Sa, 24.10. 16:40 1017 keine Meldung
Sa, 24.10. 16:30 1017 - 1,3
Sa, 24.10. 16:20 1017 keine Meldung
Sa, 24.10. 16:10 1017 keine Meldung
Sa, 24.10. 16:00 1017 - 1,4
Sa, 24.10. 15:30 1017 - 1,2
Sa, 24.10. 15:00 1018 - 0,9
Sa, 24.10. 14:30 1018 - 0,6
Sa, 24.10. 14:00 1018 - 0,3
Ortszeit Schneehöhe (cm)
Sa, 24.10. 14:00 0
Sa, 24.10. 8:00 0
Sa, 24.10. 2:00 0
Fr, 23.10. 20:00 0
Fr, 23.10. 14:00 0
Fr, 23.10. 8:00 0
Fr, 23.10. 2:00 0
Do, 22.10. 20:00 0
Ortszeit Schneehöhe (cm)
Sa, 24.10. 17:00 0
Sa, 24.10. 16:50 0
Sa, 24.10. 16:40 0
Sa, 24.10. 16:30 0
Sa, 24.10. 16:20 0
Sa, 24.10. 16:10 0
Sa, 24.10. 16:00 0
Sa, 24.10. 15:30 0
Sa, 24.10. 15:00 0
Sa, 24.10. 14:30 0
Sa, 24.10. 14:00 0
Link zu dieser Seite / Seite empfehlen

Das Wetter in ...